sensor_id;sensor_type;location;lat;lon;timestamp;P1;durP1;ratioP1;P2;durP2;ratioP2
75274;SDS011;63871;47.216;39.684;2023-07-09T00:01:46;15.27;;;7.72;;
75274;SDS011;63871;47.216;39.684;2023-07-09T00:04:13;12.57;;;7.47;;
75274;SDS011;63871;47.216;39.684;2023-07-09T00:06:39;12.15;;;7.57;;
75274;SDS011;63871;47.216;39.684;2023-07-09T00:09:05;14.18;;;7.75;;
75274;SDS011;63871;47.216;39.684;2023-07-09T00:11:37;14.02;;;8.52;;
75274;SDS011;63871;47.216;39.684;2023-07-09T00:14:04;13.75;;;7.03;;
75274;SDS011;63871;47.216;39.684;2023-07-09T00:16:30;12.85;;;7.68;;
75274;SDS011;63871;47.216;39.684;2023-07-09T00:18:56;12.18;;;7.30;;
75274;SDS011;63871;47.216;39.684;2023-07-09T00:21:22;14.43;;;7.75;;
75274;SDS011;63871;47.216;39.684;2023-07-09T00:23:48;11.95;;;7.90;;
75274;SDS011;63871;47.216;39.684;2023-07-09T00:26:14;9.88;;;6.97;;
75274;SDS011;63871;47.216;39.684;2023-07-09T00:28:41;14.85;;;7.70;;
75274;SDS011;63871;47.216;39.684;2023-07-09T00:31:11;12.13;;;7.68;;
75274;SDS011;63871;47.216;39.684;2023-07-09T00:33:42;12.05;;;7.35;;
75274;SDS011;63871;47.216;39.684;2023-07-09T00:36:30;10.05;;;7.20;;
75274;SDS011;63871;47.216;39.684;2023-07-09T00:38:58;12.57;;;7.32;;
75274;SDS011;63871;47.216;39.684;2023-07-09T00:41:34;10.32;;;7.20;;
75274;SDS011;63871;47.216;39.684;2023-07-09T00:44:35;10.48;;;6.90;;
75274;SDS011;63871;47.216;39.684;2023-07-09T00:49:37;10.43;;;6.93;;
75274;SDS011;63871;47.216;39.684;2023-07-09T00:54:50;12.55;;;8.85;;
75274;SDS011;63871;47.216;39.684;2023-07-09T00:57:18;11.32;;;8.60;;
75274;SDS011;63871;47.216;39.684;2023-07-09T00:59:49;15.57;;;8.38;;
75274;SDS011;63871;47.216;39.684;2023-07-09T01:02:18;12.85;;;8.13;;
75274;SDS011;63871;47.216;39.684;2023-07-09T01:04:54;11.13;;;8.23;;
75274;SDS011;63871;47.216;39.684;2023-07-09T01:07:26;12.75;;;8.73;;
75274;SDS011;63871;47.216;39.684;2023-07-09T01:09:53;14.20;;;8.85;;
75274;SDS011;63871;47.216;39.684;2023-07-09T01:12:19;13.10;;;8.70;;
75274;SDS011;63871;47.216;39.684;2023-07-09T01:14:47;14.85;;;9.07;;
75274;SDS011;63871;47.216;39.684;2023-07-09T01:17:16;12.88;;;9.18;;
75274;SDS011;63871;47.216;39.684;2023-07-09T01:19:43;15.40;;;9.07;;
75274;SDS011;63871;47.216;39.684;2023-07-09T01:22:14;13.77;;;10.07;;
75274;SDS011;63871;47.216;39.684;2023-07-09T01:27:25;16.27;;;9.25;;
75274;SDS011;63871;47.216;39.684;2023-07-09T01:29:59;16.80;;;9.30;;
75274;SDS011;63871;47.216;39.684;2023-07-09T01:32:26;11.10;;;8.13;;
75274;SDS011;63871;47.216;39.684;2023-07-09T01:34:54;13.77;;;8.82;;
75274;SDS011;63871;47.216;39.684;2023-07-09T01:37:23;15.13;;;8.90;;
75274;SDS011;63871;47.216;39.684;2023-07-09T01:39:52;11.65;;;9.02;;
75274;SDS011;63871;47.216;39.684;2023-07-09T01:42:20;12.65;;;9.18;;
75274;SDS011;63871;47.216;39.684;2023-07-09T01:44:48;14.82;;;8.18;;
75274;SDS011;63871;47.216;39.684;2023-07-09T01:47:15;12.63;;;8.50;;
75274;SDS011;63871;47.216;39.684;2023-07-09T01:49:42;10.73;;;8.50;;
75274;SDS011;63871;47.216;39.684;2023-07-09T01:52:11;12.65;;;8.77;;
75274;SDS011;63871;47.216;39.684;2023-07-09T01:54:39;15.82;;;8.55;;
75274;SDS011;63871;47.216;39.684;2023-07-09T01:57:13;11.73;;;8.90;;
75274;SDS011;63871;47.216;39.684;2023-07-09T01:59:50;16.20;;;9.35;;
75274;SDS011;63871;47.216;39.684;2023-07-09T02:02:18;13.63;;;9.25;;
75274;SDS011;63871;47.216;39.684;2023-07-09T02:04:45;14.25;;;8.68;;
75274;SDS011;63871;47.216;39.684;2023-07-09T02:09:49;14.98;;;8.82;;
75274;SDS011;63871;47.216;39.684;2023-07-09T02:12:15;14.95;;;9.05;;
75274;SDS011;63871;47.216;39.684;2023-07-09T02:14:41;10.90;;;8.32;;
75274;SDS011;63871;47.216;39.684;2023-07-09T02:17:09;20.05;;;11.13;;
75274;SDS011;63871;47.216;39.684;2023-07-09T02:19:36;35.60;;;23.33;;
75274;SDS011;63871;47.216;39.684;2023-07-09T02:22:04;33.72;;;20.58;;
75274;SDS011;63871;47.216;39.684;2023-07-09T02:24:30;18.00;;;13.55;;
75274;SDS011;63871;47.216;39.684;2023-07-09T02:26:57;12.77;;;8.23;;
75274;SDS011;63871;47.216;39.684;2023-07-09T02:29:25;13.00;;;7.90;;
75274;SDS011;63871;47.216;39.684;2023-07-09T02:31:51;11.75;;;8.30;;
75274;SDS011;63871;47.216;39.684;2023-07-09T02:34:19;23.95;;;11.15;;
75274;SDS011;63871;47.216;39.684;2023-07-09T02:36:45;15.55;;;8.65;;
75274;SDS011;63871;47.216;39.684;2023-07-09T02:39:12;14.23;;;8.90;;
75274;SDS011;63871;47.216;39.684;2023-07-09T02:41:41;13.27;;;8.15;;
75274;SDS011;63871;47.216;39.684;2023-07-09T02:44:08;17.23;;;8.85;;
75274;SDS011;63871;47.216;39.684;2023-07-09T02:46:34;12.75;;;8.93;;
75274;SDS011;63871;47.216;39.684;2023-07-09T02:49:02;11.07;;;7.90;;
75274;SDS011;63871;47.216;39.684;2023-07-09T02:51:29;14.02;;;8.57;;
75274;SDS011;63871;47.216;39.684;2023-07-09T02:53:56;13.32;;;8.38;;
75274;SDS011;63871;47.216;39.684;2023-07-09T02:56:23;11.27;;;8.07;;
75274;SDS011;63871;47.216;39.684;2023-07-09T02:58:49;13.18;;;7.90;;
75274;SDS011;63871;47.216;39.684;2023-07-09T03:01:16;14.43;;;8.27;;
75274;SDS011;63871;47.216;39.684;2023-07-09T03:03:42;11.80;;;7.90;;
75274;SDS011;63871;47.216;39.684;2023-07-09T03:06:08;16.85;;;7.53;;
75274;SDS011;63871;47.216;39.684;2023-07-09T03:08:35;12.82;;;7.78;;
75274;SDS011;63871;47.216;39.684;2023-07-09T03:11:10;10.95;;;6.90;;
75274;SDS011;63871;47.216;39.684;2023-07-09T03:13:36;13.40;;;7.68;;
75274;SDS011;63871;47.216;39.684;2023-07-09T03:16:02;16.80;;;7.15;;
75274;SDS011;63871;47.216;39.684;2023-07-09T03:18:28;10.38;;;7.63;;
75274;SDS011;63871;47.216;39.684;2023-07-09T03:20:54;10.93;;;6.97;;
75274;SDS011;63871;47.216;39.684;2023-07-09T03:23:20;13.35;;;6.68;;
75274;SDS011;63871;47.216;39.684;2023-07-09T03:25:46;17.05;;;9.32;;
75274;SDS011;63871;47.216;39.684;2023-07-09T03:28:12;11.00;;;7.97;;
75274;SDS011;63871;47.216;39.684;2023-07-09T03:30:41;11.05;;;7.25;;
75274;SDS011;63871;47.216;39.684;2023-07-09T03:33:12;12.60;;;8.23;;
75274;SDS011;63871;47.216;39.684;2023-07-09T03:35:39;11.05;;;7.00;;
75274;SDS011;63871;47.216;39.684;2023-07-09T03:38:06;10.93;;;7.53;;
75274;SDS011;63871;47.216;39.684;2023-07-09T03:40:33;12.05;;;7.97;;
75274;SDS011;63871;47.216;39.684;2023-07-09T03:42:59;9.90;;;6.70;;
75274;SDS011;63871;47.216;39.684;2023-07-09T03:45:25;11.43;;;6.80;;
75274;SDS011;63871;47.216;39.684;2023-07-09T03:47:51;11.73;;;6.35;;
75274;SDS011;63871;47.216;39.684;2023-07-09T03:50:17;13.85;;;7.60;;
75274;SDS011;63871;47.216;39.684;2023-07-09T03:52:43;12.27;;;7.32;;
75274;SDS011;63871;47.216;39.684;2023-07-09T03:55:09;11.57;;;6.75;;
75274;SDS011;63871;47.216;39.684;2023-07-09T03:57:35;9.20;;;6.40;;
75274;SDS011;63871;47.216;39.684;2023-07-09T04:00:02;12.35;;;6.60;;
75274;SDS011;63871;47.216;39.684;2023-07-09T04:02:40;10.00;;;6.57;;
75274;SDS011;63871;47.216;39.684;2023-07-09T04:05:09;10.43;;;7.75;;
75274;SDS011;63871;47.216;39.684;2023-07-09T04:07:35;12.05;;;7.32;;
75274;SDS011;63871;47.216;39.684;2023-07-09T04:10:02;10.70;;;7.10;;
75274;SDS011;63871;47.216;39.684;2023-07-09T04:12:28;15.77;;;10.45;;
75274;SDS011;63871;47.216;39.684;2023-07-09T04:14:53;18.25;;;10.60;;
75274;SDS011;63871;47.216;39.684;2023-07-09T04:17:19;17.75;;;10.65;;
75274;SDS011;63871;47.216;39.684;2023-07-09T04:19:47;15.20;;;12.10;;
75274;SDS011;63871;47.216;39.684;2023-07-09T04:22:12;15.73;;;9.55;;
75274;SDS011;63871;47.216;39.684;2023-07-09T04:24:38;13.85;;;7.93;;
75274;SDS011;63871;47.216;39.684;2023-07-09T04:27:04;14.43;;;8.45;;
75274;SDS011;63871;47.216;39.684;2023-07-09T04:29:30;14.63;;;7.50;;
75274;SDS011;63871;47.216;39.684;2023-07-09T04:31:59;13.52;;;7.38;;
75274;SDS011;63871;47.216;39.684;2023-07-09T04:34:25;11.02;;;7.38;;
75274;SDS011;63871;47.216;39.684;2023-07-09T04:36:51;10.43;;;6.85;;
75274;SDS011;63871;47.216;39.684;2023-07-09T04:39:16;10.80;;;6.85;;
75274;SDS011;63871;47.216;39.684;2023-07-09T04:41:42;10.35;;;7.00;;
75274;SDS011;63871;47.216;39.684;2023-07-09T04:44:08;10.43;;;6.68;;
75274;SDS011;63871;47.216;39.684;2023-07-09T04:46:34;10.27;;;7.00;;
75274;SDS011;63871;47.216;39.684;2023-07-09T04:48:59;9.93;;;6.32;;
75274;SDS011;63871;47.216;39.684;2023-07-09T04:51:44;11.57;;;7.10;;
75274;SDS011;63871;47.216;39.684;2023-07-09T04:54:28;9.10;;;7.03;;
75274;SDS011;63871;47.216;39.684;2023-07-09T04:56:55;13.30;;;7.80;;
75274;SDS011;63871;47.216;39.684;2023-07-09T04:59:21;12.70;;;6.68;;
75274;SDS011;63871;47.216;39.684;2023-07-09T05:01:48;12.30;;;7.47;;
75274;SDS011;63871;47.216;39.684;2023-07-09T05:04:15;10.18;;;7.53;;
75274;SDS011;63871;47.216;39.684;2023-07-09T05:06:41;17.02;;;7.10;;
75274;SDS011;63871;47.216;39.684;2023-07-09T05:09:07;12.15;;;8.00;;
75274;SDS011;63871;47.216;39.684;2023-07-09T05:11:34;11.95;;;7.32;;
75274;SDS011;63871;47.216;39.684;2023-07-09T05:14:01;9.98;;;6.63;;
75274;SDS011;63871;47.216;39.684;2023-07-09T05:16:26;12.82;;;7.47;;
75274;SDS011;63871;47.216;39.684;2023-07-09T05:18:52;12.77;;;7.38;;
75274;SDS011;63871;47.216;39.684;2023-07-09T05:21:18;9.45;;;7.13;;
75274;SDS011;63871;47.216;39.684;2023-07-09T05:23:43;14.32;;;7.60;;
75274;SDS011;63871;47.216;39.684;2023-07-09T05:26:09;10.95;;;8.07;;
75274;SDS011;63871;47.216;39.684;2023-07-09T05:28:35;11.93;;;7.47;;
75274;SDS011;63871;47.216;39.684;2023-07-09T05:31:19;11.07;;;6.70;;
75274;SDS011;63871;47.216;39.684;2023-07-09T05:33:45;12.05;;;7.97;;
75274;SDS011;63871;47.216;39.684;2023-07-09T05:36:10;13.20;;;7.60;;
75274;SDS011;63871;47.216;39.684;2023-07-09T05:38:42;12.88;;;7.05;;
75274;SDS011;63871;47.216;39.684;2023-07-09T05:41:08;11.63;;;7.30;;
75274;SDS011;63871;47.216;39.684;2023-07-09T05:43:34;10.55;;;7.80;;
75274;SDS011;63871;47.216;39.684;2023-07-09T05:46:01;14.40;;;7.88;;
75274;SDS011;63871;47.216;39.684;2023-07-09T05:48:28;11.10;;;8.02;;
75274;SDS011;63871;47.216;39.684;2023-07-09T05:51:12;11.63;;;7.05;;
75274;SDS011;63871;47.216;39.684;2023-07-09T05:53:37;13.00;;;7.30;;
75274;SDS011;63871;47.216;39.684;2023-07-09T05:56:04;11.02;;;7.50;;
75274;SDS011;63871;47.216;39.684;2023-07-09T05:58:30;10.13;;;7.10;;
75274;SDS011;63871;47.216;39.684;2023-07-09T06:00:56;12.77;;;6.70;;
75274;SDS011;63871;47.216;39.684;2023-07-09T06:03:25;12.23;;;6.53;;
75274;SDS011;63871;47.216;39.684;2023-07-09T06:05:52;10.48;;;6.15;;
75274;SDS011;63871;47.216;39.684;2023-07-09T06:08:19;11.05;;;7.28;;
75274;SDS011;63871;47.216;39.684;2023-07-09T06:10:56;9.82;;;6.80;;
75274;SDS011;63871;47.216;39.684;2023-07-09T06:13:24;9.63;;;6.47;;
75274;SDS011;63871;47.216;39.684;2023-07-09T06:15:50;9.45;;;5.60;;
75274;SDS011;63871;47.216;39.684;2023-07-09T06:18:17;11.68;;;5.03;;
75274;SDS011;63871;47.216;39.684;2023-07-09T06:20:50;8.02;;;5.53;;
75274;SDS011;63871;47.216;39.684;2023-07-09T06:23:18;9.98;;;5.93;;
75274;SDS011;63871;47.216;39.684;2023-07-09T06:25:45;10.50;;;5.60;;
75274;SDS011;63871;47.216;39.684;2023-07-09T06:28:13;8.95;;;5.30;;
75274;SDS011;63871;47.216;39.684;2023-07-09T06:30:44;9.75;;;5.38;;
75274;SDS011;63871;47.216;39.684;2023-07-09T06:33:10;9.43;;;5.30;;
75274;SDS011;63871;47.216;39.684;2023-07-09T06:35:37;9.02;;;5.70;;
75274;SDS011;63871;47.216;39.684;2023-07-09T06:38:05;8.15;;;4.55;;
75274;SDS011;63871;47.216;39.684;2023-07-09T06:40:31;6.78;;;4.30;;
75274;SDS011;63871;47.216;39.684;2023-07-09T06:42:57;6.68;;;4.15;;
75274;SDS011;63871;47.216;39.684;2023-07-09T06:45:31;13.25;;;4.38;;
75274;SDS011;63871;47.216;39.684;2023-07-09T06:47:57;8.07;;;4.30;;
75274;SDS011;63871;47.216;39.684;2023-07-09T06:50:23;8.23;;;4.65;;
75274;SDS011;63871;47.216;39.684;2023-07-09T06:52:49;8.57;;;4.00;;
75274;SDS011;63871;47.216;39.684;2023-07-09T06:55:14;7.57;;;4.53;;
75274;SDS011;63871;47.216;39.684;2023-07-09T06:57:40;9.27;;;4.63;;
75274;SDS011;63871;47.216;39.684;2023-07-09T07:00:06;6.78;;;3.90;;
75274;SDS011;63871;47.216;39.684;2023-07-09T07:02:32;9.70;;;4.55;;
75274;SDS011;63871;47.216;39.684;2023-07-09T07:04:59;6.25;;;4.07;;
75274;SDS011;63871;47.216;39.684;2023-07-09T07:07:25;7.50;;;4.40;;
75274;SDS011;63871;47.216;39.684;2023-07-09T07:09:50;8.95;;;4.32;;
75274;SDS011;63871;47.216;39.684;2023-07-09T07:12:29;6.82;;;4.90;;
75274;SDS011;63871;47.216;39.684;2023-07-09T07:14:55;7.88;;;4.93;;
75274;SDS011;63871;47.216;39.684;2023-07-09T07:17:21;6.97;;;5.07;;
75274;SDS011;63871;47.216;39.684;2023-07-09T07:19:47;8.30;;;4.93;;
75274;SDS011;63871;47.216;39.684;2023-07-09T07:22:14;6.90;;;4.18;;
75274;SDS011;63871;47.216;39.684;2023-07-09T07:24:40;9.75;;;4.88;;
75274;SDS011;63871;47.216;39.684;2023-07-09T07:27:07;6.32;;;4.50;;
75274;SDS011;63871;47.216;39.684;2023-07-09T07:29:33;8.70;;;4.93;;
75274;SDS011;63871;47.216;39.684;2023-07-09T07:31:59;7.22;;;3.67;;
75274;SDS011;63871;47.216;39.684;2023-07-09T07:34:25;10.32;;;3.88;;
75274;SDS011;63871;47.216;39.684;2023-07-09T07:36:51;7.38;;;5.07;;
75274;SDS011;63871;47.216;39.684;2023-07-09T07:39:17;7.72;;;5.20;;
75274;SDS011;63871;47.216;39.684;2023-07-09T07:41:43;6.95;;;4.97;;
75274;SDS011;63871;47.216;39.684;2023-07-09T07:44:08;7.38;;;5.05;;
75274;SDS011;63871;47.216;39.684;2023-07-09T07:46:34;5.38;;;4.65;;
75274;SDS011;63871;47.216;39.684;2023-07-09T07:49:00;7.45;;;4.70;;
75274;SDS011;63871;47.216;39.684;2023-07-09T07:51:26;14.80;;;9.43;;
75274;SDS011;63871;47.216;39.684;2023-07-09T07:53:52;14.50;;;8.13;;
75274;SDS011;63871;47.216;39.684;2023-07-09T07:56:18;7.18;;;4.28;;
75274;SDS011;63871;47.216;39.684;2023-07-09T07:58:43;7.53;;;4.78;;
75274;SDS011;63871;47.216;39.684;2023-07-09T08:01:09;13.57;;;7.07;;
75274;SDS011;63871;47.216;39.684;2023-07-09T08:03:35;6.25;;;4.43;;
75274;SDS011;63871;47.216;39.684;2023-07-09T08:06:01;7.32;;;5.10;;
75274;SDS011;63871;47.216;39.684;2023-07-09T08:08:27;8.52;;;4.82;;
75274;SDS011;63871;47.216;39.684;2023-07-09T08:10:59;8.10;;;4.95;;
75274;SDS011;63871;47.216;39.684;2023-07-09T08:13:26;7.90;;;4.65;;
75274;SDS011;63871;47.216;39.684;2023-07-09T08:15:52;7.32;;;5.82;;
75274;SDS011;63871;47.216;39.684;2023-07-09T08:18:18;8.95;;;6.00;;
75274;SDS011;63871;47.216;39.684;2023-07-09T08:20:44;7.57;;;4.35;;
75274;SDS011;63871;47.216;39.684;2023-07-09T08:23:10;8.82;;;4.22;;
75274;SDS011;63871;47.216;39.684;2023-07-09T08:25:36;12.95;;;5.00;;
75274;SDS011;63871;47.216;39.684;2023-07-09T08:28:01;6.55;;;3.83;;
75274;SDS011;63871;47.216;39.684;2023-07-09T08:30:27;6.10;;;4.13;;
75274;SDS011;63871;47.216;39.684;2023-07-09T08:32:53;6.72;;;4.72;;
75274;SDS011;63871;47.216;39.684;2023-07-09T08:35:20;6.55;;;4.07;;
75274;SDS011;63871;47.216;39.684;2023-07-09T08:37:45;7.80;;;4.03;;
75274;SDS011;63871;47.216;39.684;2023-07-09T08:40:12;5.47;;;4.35;;
75274;SDS011;63871;47.216;39.684;2023-07-09T08:42:44;7.30;;;3.72;;
75274;SDS011;63871;47.216;39.684;2023-07-09T08:45:15;6.38;;;3.58;;
75274;SDS011;63871;47.216;39.684;2023-07-09T08:51:33;6.10;;;4.25;;
75274;SDS011;63871;47.216;39.684;2023-07-09T08:53:44;6.28;;;4.63;;
75274;SDS011;63871;47.216;39.684;2023-07-09T08:56:15;6.55;;;3.72;;
75274;SDS011;63871;47.216;39.684;2023-07-09T08:58:41;6.07;;;4.05;;
75274;SDS011;63871;47.216;39.684;2023-07-09T09:01:17;8.32;;;4.38;;
75274;SDS011;63871;47.216;39.684;2023-07-09T09:04:07;10.88;;;4.45;;
75274;SDS011;63871;47.216;39.684;2023-07-09T09:06:44;10.82;;;4.70;;
75274;SDS011;63871;47.216;39.684;2023-07-09T09:11:56;5.95;;;4.15;;
75274;SDS011;63871;47.216;39.684;2023-07-09T09:14:35;6.72;;;3.63;;
75274;SDS011;63871;47.216;39.684;2023-07-09T09:17:07;5.95;;;4.22;;
75274;SDS011;63871;47.216;39.684;2023-07-09T09:19:45;7.28;;;4.35;;
75274;SDS011;63871;47.216;39.684;2023-07-09T09:22:13;6.55;;;4.07;;
75274;SDS011;63871;47.216;39.684;2023-07-09T09:25:02;5.80;;;4.00;;
75274;SDS011;63871;47.216;39.684;2023-07-09T09:27:38;7.15;;;4.00;;
75274;SDS011;63871;47.216;39.684;2023-07-09T09:30:04;7.80;;;3.85;;
75274;SDS011;63871;47.216;39.684;2023-07-09T09:58:43;8.23;;;4.32;;
75274;SDS011;63871;47.216;39.684;2023-07-09T10:01:15;7.25;;;3.72;;
75274;SDS011;63871;47.216;39.684;2023-07-09T10:03:43;7.93;;;4.07;;
75274;SDS011;63871;47.216;39.684;2023-07-09T10:06:16;7.25;;;4.00;;
75274;SDS011;63871;47.216;39.684;2023-07-09T10:08:56;7.80;;;4.18;;
75274;SDS011;63871;47.216;39.684;2023-07-09T10:14:00;8.73;;;3.75;;
75274;SDS011;63871;47.216;39.684;2023-07-09T10:16:36;7.57;;;4.13;;
75274;SDS011;63871;47.216;39.684;2023-07-09T10:19:25;6.05;;;3.78;;
75274;SDS011;63871;47.216;39.684;2023-07-09T10:22:10;5.65;;;3.67;;
75274;SDS011;63871;47.216;39.684;2023-07-09T10:24:51;6.63;;;3.50;;
75274;SDS011;63871;47.216;39.684;2023-07-09T10:27:32;8.88;;;3.60;;
75274;SDS011;63871;47.216;39.684;2023-07-09T10:30:33;5.78;;;3.33;;
75274;SDS011;63871;47.216;39.684;2023-07-09T10:33:09;6.25;;;3.50;;
75274;SDS011;63871;47.216;39.684;2023-07-09T10:35:38;6.05;;;3.40;;
75274;SDS011;63871;47.216;39.684;2023-07-09T10:40:54;6.05;;;3.78;;
75274;SDS011;63871;47.216;39.684;2023-07-09T10:43:33;6.85;;;3.78;;
75274;SDS011;63871;47.216;39.684;2023-07-09T10:46:09;7.68;;;3.65;;
75274;SDS011;63871;47.216;39.684;2023-07-09T10:48:49;6.32;;;3.70;;
75274;SDS011;63871;47.216;39.684;2023-07-09T10:51:30;8.40;;;4.18;;
75274;SDS011;63871;47.216;39.684;2023-07-09T10:54:04;6.03;;;3.83;;
75274;SDS011;63871;47.216;39.684;2023-07-09T10:56:40;8.15;;;3.63;;
75274;SDS011;63871;47.216;39.684;2023-07-09T10:59:20;6.03;;;3.75;;
75274;SDS011;63871;47.216;39.684;2023-07-09T11:02:29;6.05;;;3.83;;
75274;SDS011;63871;47.216;39.684;2023-07-09T11:04:54;6.22;;;3.67;;
75274;SDS011;63871;47.216;39.684;2023-07-09T11:13:12;7.20;;;4.10;;
75274;SDS011;63871;47.216;39.684;2023-07-09T11:15:46;6.85;;;4.05;;
75274;SDS011;63871;47.216;39.684;2023-07-09T11:18:20;5.35;;;3.58;;
75274;SDS011;63871;47.216;39.684;2023-07-09T11:20:54;7.63;;;3.95;;
75274;SDS011;63871;47.216;39.684;2023-07-09T11:26:13;5.65;;;3.72;;
75274;SDS011;63871;47.216;39.684;2023-07-09T11:28:47;6.70;;;4.07;;
75274;SDS011;63871;47.216;39.684;2023-07-09T11:31:24;5.60;;;3.75;;
75274;SDS011;63871;47.216;39.684;2023-07-09T11:34:18;5.70;;;4.03;;
75274;SDS011;63871;47.216;39.684;2023-07-09T11:36:47;6.85;;;4.22;;
75274;SDS011;63871;47.216;39.684;2023-07-09T11:41:44;9.50;;;4.13;;
75274;SDS011;63871;47.216;39.684;2023-07-09T11:44:12;6.68;;;4.10;;
75274;SDS011;63871;47.216;39.684;2023-07-09T11:49:49;7.40;;;4.28;;
75274;SDS011;63871;47.216;39.684;2023-07-09T11:52:35;7.38;;;4.20;;
75274;SDS011;63871;47.216;39.684;2023-07-09T11:57:40;7.43;;;4.10;;
75274;SDS011;63871;47.216;39.684;2023-07-09T12:00:08;6.85;;;4.47;;
75274;SDS011;63871;47.216;39.684;2023-07-09T12:02:37;8.05;;;4.20;;
75274;SDS011;63871;47.216;39.684;2023-07-09T12:05:03;6.18;;;4.38;;
75274;SDS011;63871;47.216;39.684;2023-07-09T12:07:30;7.05;;;4.13;;
75274;SDS011;63871;47.216;39.684;2023-07-09T12:09:55;10.65;;;5.40;;
75274;SDS011;63871;47.216;39.684;2023-07-09T12:12:23;7.18;;;5.05;;
75274;SDS011;63871;47.216;39.684;2023-07-09T12:14:50;8.18;;;5.03;;
75274;SDS011;63871;47.216;39.684;2023-07-09T12:17:16;8.90;;;4.95;;
75274;SDS011;63871;47.216;39.684;2023-07-09T12:19:43;10.00;;;5.38;;
75274;SDS011;63871;47.216;39.684;2023-07-09T12:22:10;8.60;;;5.53;;
75274;SDS011;63871;47.216;39.684;2023-07-09T12:24:45;8.10;;;5.22;;
75274;SDS011;63871;47.216;39.684;2023-07-09T12:27:23;6.57;;;5.07;;
75274;SDS011;63871;47.216;39.684;2023-07-09T12:29:53;7.30;;;5.15;;
75274;SDS011;63871;47.216;39.684;2023-07-09T12:32:21;8.27;;;5.20;;
75274;SDS011;63871;47.216;39.684;2023-07-09T12:34:52;7.60;;;5.28;;
75274;SDS011;63871;47.216;39.684;2023-07-09T12:37:19;7.75;;;4.70;;
75274;SDS011;63871;47.216;39.684;2023-07-09T12:39:49;8.55;;;4.80;;
75274;SDS011;63871;47.216;39.684;2023-07-09T12:47:45;11.90;;;5.47;;
75274;SDS011;63871;47.216;39.684;2023-07-09T12:52:56;9.27;;;5.60;;
75274;SDS011;63871;47.216;39.684;2023-07-09T12:55:28;7.93;;;5.53;;
75274;SDS011;63871;47.216;39.684;2023-07-09T12:57:57;10.50;;;5.72;;
75274;SDS011;63871;47.216;39.684;2023-07-09T13:00:31;12.10;;;5.82;;
75274;SDS011;63871;47.216;39.684;2023-07-09T13:02:57;8.38;;;5.07;;
75274;SDS011;63871;47.216;39.684;2023-07-09T13:05:24;8.57;;;5.10;;
75274;SDS011;63871;47.216;39.684;2023-07-09T13:07:58;8.20;;;5.90;;
75274;SDS011;63871;47.216;39.684;2023-07-09T13:10:29;7.20;;;5.47;;
75274;SDS011;63871;47.216;39.684;2023-07-09T13:13:05;8.27;;;5.00;;
75274;SDS011;63871;47.216;39.684;2023-07-09T13:18:03;10.07;;;5.55;;
75274;SDS011;63871;47.216;39.684;2023-07-09T13:20:31;8.20;;;5.05;;
75274;SDS011;63871;47.216;39.684;2023-07-09T13:22:58;10.82;;;5.40;;
75274;SDS011;63871;47.216;39.684;2023-07-09T13:25:24;9.88;;;5.20;;
75274;SDS011;63871;47.216;39.684;2023-07-09T13:27:50;8.73;;;5.63;;
75274;SDS011;63871;47.216;39.684;2023-07-09T13:30:16;7.47;;;5.43;;
75274;SDS011;63871;47.216;39.684;2023-07-09T13:32:45;9.82;;;5.68;;
75274;SDS011;63871;47.216;39.684;2023-07-09T13:35:14;8.13;;;5.72;;
75274;SDS011;63871;47.216;39.684;2023-07-09T13:37:43;7.22;;;5.25;;
75274;SDS011;63871;47.216;39.684;2023-07-09T13:40:10;7.63;;;5.25;;
75274;SDS011;63871;47.216;39.684;2023-07-09T13:42:38;8.80;;;5.35;;
75274;SDS011;63871;47.216;39.684;2023-07-09T13:45:17;8.77;;;6.43;;
75274;SDS011;63871;47.216;39.684;2023-07-09T13:47:45;8.82;;;5.38;;
75274;SDS011;63871;47.216;39.684;2023-07-09T13:50:12;10.55;;;5.88;;
75274;SDS011;63871;47.216;39.684;2023-07-09T13:52:39;14.90;;;7.40;;
75274;SDS011;63871;47.216;39.684;2023-07-09T13:55:08;12.35;;;7.75;;
75274;SDS011;63871;47.216;39.684;2023-07-09T13:57:46;11.13;;;5.90;;
75274;SDS011;63871;47.216;39.684;2023-07-09T14:00:13;10.23;;;5.82;;
75274;SDS011;63871;47.216;39.684;2023-07-09T14:02:40;13.65;;;5.38;;
75274;SDS011;63871;47.216;39.684;2023-07-09T14:05:10;10.88;;;5.82;;
75274;SDS011;63871;47.216;39.684;2023-07-09T14:07:40;12.52;;;5.53;;
75274;SDS011;63871;47.216;39.684;2023-07-09T14:10:10;8.35;;;5.40;;
75274;SDS011;63871;47.216;39.684;2023-07-09T14:12:39;10.38;;;5.60;;
75274;SDS011;63871;47.216;39.684;2023-07-09T14:15:10;9.25;;;5.80;;
75274;SDS011;63871;47.216;39.684;2023-07-09T14:17:42;9.57;;;6.03;;
75274;SDS011;63871;47.216;39.684;2023-07-09T14:20:10;12.45;;;6.00;;
75274;SDS011;63871;47.216;39.684;2023-07-09T14:22:40;9.43;;;5.57;;
75274;SDS011;63871;47.216;39.684;2023-07-09T14:25:23;10.50;;;5.97;;
75274;SDS011;63871;47.216;39.684;2023-07-09T14:27:50;8.30;;;5.60;;
75274;SDS011;63871;47.216;39.684;2023-07-09T14:30:20;9.00;;;5.18;;
75274;SDS011;63871;47.216;39.684;2023-07-09T14:32:49;12.05;;;5.40;;
75274;SDS011;63871;47.216;39.684;2023-07-09T14:35:23;8.88;;;4.78;;
75274;SDS011;63871;47.216;39.684;2023-07-09T14:37:52;10.20;;;5.72;;
75274;SDS011;63871;47.216;39.684;2023-07-09T14:40:21;7.75;;;4.85;;
75274;SDS011;63871;47.216;39.684;2023-07-09T14:42:47;7.18;;;5.18;;
75274;SDS011;63871;47.216;39.684;2023-07-09T14:45:19;9.13;;;5.40;;
75274;SDS011;63871;47.216;39.684;2023-07-09T14:47:47;10.45;;;6.35;;
75274;SDS011;63871;47.216;39.684;2023-07-09T14:50:13;6.95;;;4.78;;
75274;SDS011;63871;47.216;39.684;2023-07-09T14:52:40;9.68;;;5.03;;
75274;SDS011;63871;47.216;39.684;2023-07-09T14:55:17;7.63;;;4.78;;
75274;SDS011;63871;47.216;39.684;2023-07-09T14:57:46;9.00;;;5.43;;
75274;SDS011;63871;47.216;39.684;2023-07-09T15:00:19;7.57;;;5.15;;
75274;SDS011;63871;47.216;39.684;2023-07-09T15:02:49;8.38;;;5.65;;
75274;SDS011;63871;47.216;39.684;2023-07-09T15:05:18;8.52;;;5.45;;
75274;SDS011;63871;47.216;39.684;2023-07-09T15:07:47;10.07;;;5.72;;
75274;SDS011;63871;47.216;39.684;2023-07-09T15:10:13;9.00;;;6.22;;
75274;SDS011;63871;47.216;39.684;2023-07-09T15:12:41;9.50;;;5.85;;
75274;SDS011;63871;47.216;39.684;2023-07-09T15:15:13;9.43;;;5.47;;
75274;SDS011;63871;47.216;39.684;2023-07-09T15:17:48;11.40;;;6.95;;
75274;SDS011;63871;47.216;39.684;2023-07-09T15:20:15;11.65;;;6.75;;
75274;SDS011;63871;47.216;39.684;2023-07-09T15:22:43;12.45;;;6.60;;
75274;SDS011;63871;47.216;39.684;2023-07-09T15:25:16;9.60;;;5.90;;
75274;SDS011;63871;47.216;39.684;2023-07-09T15:27:46;7.65;;;5.38;;
75274;SDS011;63871;47.216;39.684;2023-07-09T15:32:47;8.52;;;5.82;;
75274;SDS011;63871;47.216;39.684;2023-07-09T15:35:15;7.93;;;5.50;;
75274;SDS011;63871;47.216;39.684;2023-07-09T15:37:44;10.63;;;5.82;;
75274;SDS011;63871;47.216;39.684;2023-07-09T15:40:22;10.38;;;6.10;;
75274;SDS011;63871;47.216;39.684;2023-07-09T15:42:50;11.35;;;6.45;;
75274;SDS011;63871;47.216;39.684;2023-07-09T15:45:20;11.00;;;6.75;;
75274;SDS011;63871;47.216;39.684;2023-07-09T15:47:47;16.25;;;7.30;;
75274;SDS011;63871;47.216;39.684;2023-07-09T15:50:15;8.65;;;6.15;;
75274;SDS011;63871;47.216;39.684;2023-07-09T15:52:46;10.57;;;6.72;;
75274;SDS011;63871;47.216;39.684;2023-07-09T15:55:13;11.60;;;6.72;;
75274;SDS011;63871;47.216;39.684;2023-07-09T15:57:41;10.45;;;6.40;;
75274;SDS011;63871;47.216;39.684;2023-07-09T16:02:42;13.23;;;7.10;;